Time;durP1;ratioP1;P1;durP2;ratioP2;P2;SDS_P1;SDS_P2;PMS_P1;PMS_P2;Temp;Humidity;BMP_temperature;BMP_pressure;BME280_temperature;BME280_humidity;BME280_pressure;Samples;Min_cycle;Max_cycle;Signal;HPM_P1;HPM_P2
2022/02/09 00:00:25;;;;;;;4.13;2.10;;;7.50;99.90;7.40;101478.00;;;;4990666;28;88010;-72
2022/02/09 00:03:08;;;;;;;3.50;1.87;;;7.60;99.90;7.50;101491.00;;;;4965955;28;89227;-72
2022/02/09 00:05:44;;;;;;;2.47;2.27;;;7.60;99.90;7.50;101479.00;;;;4956299;28;88142;-74
2022/02/09 00:08:10;;;;;;;1.70;1.60;;;7.60;99.90;7.50;101476.00;;;;4956651;28;87365;-72
2022/02/09 00:10:39;;;;;;;3.13;1.67;;;7.60;99.90;7.50;101482.00;;;;4956154;28;87412;-72
2022/02/09 00:15:57;;;;;;;4.40;1.63;;;7.60;99.90;7.50;101492.00;;;;4968247;28;89113;-72
2022/02/09 00:21:08;;;;;;;3.47;2.13;;;7.60;99.90;7.60;101494.00;;;;4971297;28;87819;-71
2022/02/09 00:23:51;;;;;;;3.13;1.77;;;7.60;99.90;7.60;101486.00;;;;4975445;28;87849;-72
2022/02/09 00:43:15;;;;;;;1.80;1.43;;;7.70;99.90;7.70;101493.00;;;;4955274;28;89004;-72
2022/02/09 00:58:51;;;;;;;2.27;1.70;;;7.80;99.90;7.70;101506.00;;;;4975083;28;87961;-70
2022/02/09 01:40:19;;;;;;;4.40;2.10;;;8.10;99.90;8.10;101509.00;;;;4953845;28;87907;-71
2022/02/09 01:56:21;;;;;;;2.83;1.90;;;8.20;99.90;8.20;101489.00;;;;4984898;28;87451;-70
2022/02/09 01:58:47;;;;;;;3.10;2.10;;;8.20;99.90;8.20;101480.00;;;;4974722;28;87829;-71
2022/02/09 02:01:13;;;;;;;4.27;2.20;;;8.20;99.90;8.20;101491.00;;;;4976827;28;88669;-69
2022/02/09 02:03:39;;;;;;;2.77;1.80;;;8.20;99.90;8.20;101489.00;;;;4976957;28;88504;-71
2022/02/09 02:06:05;;;;;;;3.53;2.00;;;8.30;99.90;8.10;101482.00;;;;4978087;28;89447;-71
2022/02/09 02:08:34;;;;;;;2.90;2.30;;;8.20;99.90;8.20;101480.00;;;;4975452;28;107492;-69
2022/02/09 02:11:21;;;;;;;3.77;2.20;;;8.20;99.90;8.10;101467.00;;;;4977590;28;87929;-71
2022/02/09 02:16:20;;;;;;;3.00;1.93;;;8.20;99.90;8.10;101474.00;;;;4975738;28;100666;-71
2022/02/09 02:18:52;;;;;;;3.37;2.20;;;8.20;99.90;8.10;101481.00;;;;4964604;28;87916;-69
2022/02/09 02:21:33;;;;;;;3.00;2.07;;;8.20;99.90;8.10;101485.00;;;;4978106;28;87003;-70
2022/02/09 02:24:33;;;;;;;1.80;1.57;;;8.20;99.90;8.10;101479.00;;;;4976549;28;87945;-71
2022/02/09 02:27:20;;;;;;;2.53;2.30;;;8.20;99.90;8.10;101474.00;;;;4977482;28;87617;-70
2022/02/09 02:41:49;;;;;;;6.43;2.47;;;8.20;99.90;8.10;101495.00;;;;4975108;28;88169;-72
2022/02/09 02:47:20;;;;;;;3.93;2.20;;;8.20;99.90;8.10;101506.00;;;;4953076;28;88030;-70
2022/02/09 02:58:51;;;;;;;3.37;2.60;;;8.10;99.90;8.10;101494.00;;;;4954158;28;88555;-72
2022/02/09 03:14:15;;;;;;;2.27;1.83;;;8.10;99.90;8.00;101490.00;;;;4969704;28;99707;-73
2022/02/09 03:16:47;;;;;;;1.80;1.50;;;8.10;99.90;8.00;101480.00;;;;4970560;28;88309;-70
2022/02/09 03:22:01;;;;;;;3.67;2.17;;;8.10;99.90;8.00;101485.00;;;;4954604;28;87788;-71
2022/02/09 03:27:32;;;;;;;2.30;1.70;;;8.10;99.90;8.00;101487.00;;;;4973908;28;87548;-70
2022/02/09 03:49:34;;;;;;;4.13;1.80;;;8.20;99.90;8.10;101477.00;;;;4953721;28;87913;-73
2022/02/09 03:52:09;;;;;;;3.07;1.93;;;8.20;99.90;8.10;101471.00;;;;4975856;28;88630;-71
2022/02/09 03:57:25;;;;;;;3.00;2.47;;;8.20;99.90;8.10;101480.00;;;;4953649;28;87749;-71
2022/02/09 03:59:51;;;;;;;3.60;1.97;;;8.20;99.90;8.10;101481.00;;;;4956578;28;88319;-71
2022/02/09 04:02:17;;;;;;;3.37;2.10;;;8.20;99.90;8.10;101485.00;;;;4956319;28;88682;-72
2022/02/09 04:04:43;;;;;;;2.87;2.03;;;8.20;99.90;8.20;101482.00;;;;4961960;28;87982;-72
2022/02/09 04:07:12;;;;;;;1.90;1.70;;;8.30;99.90;8.20;101492.00;;;;4975979;28;87730;-70
2022/02/09 04:09:44;;;;;;;2.70;1.90;;;8.20;99.90;8.20;101481.00;;;;4973661;28;89436;-72
2022/02/09 04:12:27;;;;;;;2.30;1.80;;;8.20;99.90;8.20;101483.00;;;;4971307;28;87773;-74
2022/02/09 04:18:35;;;;;;;2.60;2.37;;;8.30;99.90;8.20;101471.00;;;;4955498;28;88877;-74
2022/02/09 04:22:21;;;;;;;3.10;2.00;;;8.30;99.90;8.20;101467.00;;;;4978818;28;88232;-71
2022/02/09 04:37:09;;;;;;;3.97;2.47;;;8.30;99.90;8.30;101481.00;;;;4975086;28;87104;-70
2022/02/09 04:39:51;;;;;;;1.83;1.43;;;8.30;99.90;8.20;101483.00;;;;4974113;28;87943;-69
2022/02/09 04:42:38;;;;;;;4.10;2.23;;;8.30;99.90;8.30;101479.00;;;;4973585;28;88040;-71
2022/02/09 04:50:54;;;;;;;2.37;2.17;;;8.30;99.90;8.30;101476.00;;;;4965087;28;87769;-71
2022/02/09 04:56:12;;;;;;;2.50;2.10;;;8.30;99.90;8.30;101485.00;;;;4972140;28;87876;-70
2022/02/09 04:58:51;;;;;;;2.47;1.97;;;8.30;99.90;8.30;101483.00;;;;4989415;28;87663;-72
2022/02/09 05:01:47;;;;;;;1.77;1.63;;;8.40;99.90;8.30;101484.00;;;;4973317;28;87964;-71
2022/02/09 05:17:59;;;;;;;3.67;1.77;;;8.40;99.90;8.40;101467.00;;;;4955411;28;87770;-70
2022/02/09 05:23:39;;;;;;;1.50;1.33;;;8.40;99.90;8.40;101466.00;;;;4953765;28;87808;-72
2022/02/09 05:26:21;;;;;;;2.07;1.80;;;8.50;99.90;8.40;101470.00;;;;4955056;28;88285;-71
2022/02/09 05:28:47;;;;;;;2.23;1.27;;;8.40;99.90;8.40;101472.00;;;;4955150;28;87967;-70
2022/02/09 05:31:13;;;;;;;3.33;1.50;;;8.50;99.90;8.40;101473.00;;;;4972814;28;112060;-70
2022/02/09 05:33:39;;;;;;;1.60;1.27;;;8.50;99.90;8.40;101474.00;;;;4974719;28;108860;-70
2022/02/09 05:36:05;;;;;;;4.23;1.80;;;8.50;99.90;8.40;101469.00;;;;4973530;28;118954;-70
2022/02/09 05:38:31;;;;;;;3.33;1.93;;;8.40;99.90;8.40;101464.00;;;;4961310;28;88729;-70
2022/02/09 05:40:57;;;;;;;2.80;1.70;;;8.50;99.90;8.40;101462.00;;;;4959171;28;110527;-71
2022/02/09 05:43:25;;;;;;;3.33;1.80;;;8.40;99.90;8.40;101467.00;;;;4957581;28;108007;-70
2022/02/09 05:46:25;;;;;;;2.57;1.70;;;8.40;99.90;8.40;101463.00;;;;4958282;28;87815;-69
2022/02/09 05:51:37;;;;;;;3.23;1.87;;;8.40;99.90;8.40;101473.00;;;;4975687;28;99354;-70
2022/02/09 05:56:43;;;;;;;2.03;1.50;;;8.50;99.90;8.40;101483.00;;;;4956748;28;86915;-70
2022/02/09 06:01:38;;;;;;;4.17;1.53;;;8.50;99.90;8.40;101484.00;;;;4977092;28;87645;-70
2022/02/09 06:04:05;;;;;;;1.93;1.73;;;8.50;99.90;8.40;101479.00;;;;4975799;28;89613;-71
2022/02/09 06:06:30;;;;;;;2.03;1.50;;;8.50;99.90;8.50;101481.00;;;;4970960;28;96874;-69
2022/02/09 06:08:57;;;;;;;2.97;1.63;;;8.60;99.90;8.50;101482.00;;;;4977088;28;117686;-69
2022/02/09 06:11:37;;;;;;;3.00;2.07;;;8.60;99.90;8.50;101489.00;;;;4976373;28;87945;-70
2022/02/09 06:19:46;;;;;;;2.87;1.97;;;8.60;99.90;8.50;101466.00;;;;4975759;28;88225;-71
2022/02/09 06:22:11;;;;;;;3.33;2.43;;;8.60;99.90;8.50;101460.00;;;;4978150;28;87073;-71
2022/02/09 06:24:39;;;;;;;3.13;2.00;;;8.60;99.90;8.50;101473.00;;;;4992622;28;87728;-72
2022/02/09 06:27:05;;;;;;;3.57;1.63;;;8.60;99.90;8.50;101473.00;;;;4977445;28;88315;-71
2022/02/09 06:29:31;;;;;;;1.37;1.23;;;8.60;99.90;8.50;101464.00;;;;4973502;28;97886;-70
2022/02/09 06:31:57;;;;;;;2.57;1.77;;;8.60;99.90;8.50;101467.00;;;;4977884;28;88129;-70
2022/02/09 06:34:23;;;;;;;3.60;1.60;;;8.60;99.90;8.60;101475.00;;;;4970590;28;87780;-71
2022/02/09 06:36:57;;;;;;;4.07;2.07;;;8.60;99.90;8.60;101469.00;;;;4976099;28;117601;-70
2022/02/09 06:39:24;;;;;;;2.77;1.67;;;8.60;99.90;8.60;101467.00;;;;4973168;28;88821;-71
2022/02/09 06:41:50;;;;;;;5.57;1.67;;;8.60;99.90;8.60;101468.00;;;;4975687;28;87854;-70
2022/02/09 06:44:16;;;;;;;1.83;1.43;;;8.70;99.90;8.60;101465.00;;;;4974753;28;108345;-70
2022/02/09 06:46:42;;;;;;;1.60;1.47;;;8.60;99.90;8.60;101464.00;;;;4991804;27;87512;-72
2022/02/09 06:49:09;;;;;;;1.03;0.93;;;8.60;99.90;8.60;101467.00;;;;4976848;28;96357;-72
2022/02/09 06:51:38;;;;;;;1.37;1.23;;;8.60;99.90;8.60;101476.00;;;;4977512;28;87657;-71
2022/02/09 06:54:14;;;;;;;1.13;0.93;;;8.70;99.90;8.60;101465.00;;;;4975359;28;88907;-71
2022/02/09 06:59:28;;;;;;;1.93;1.13;;;8.60;99.90;8.60;101463.00;;;;4956676;28;87825;-71
2022/02/09 07:02:02;;;;;;;1.30;1.13;;;8.70;99.90;8.60;101456.00;;;;4961174;28;87458;-73
2022/02/09 07:04:27;;;;;;;1.63;1.43;;;8.70;99.90;8.60;101453.00;;;;4974378;28;87627;-72
2022/02/09 07:06:53;;;;;;;1.97;0.90;;;8.70;99.90;8.60;101456.00;;;;4991562;28;88059;-71
2022/02/09 07:09:19;;;;;;;2.23;1.50;;;8.70;99.90;8.60;101442.00;;;;4973189;28;89132;-71
2022/02/09 07:11:45;;;;;;;1.97;1.57;;;8.70;99.90;8.60;101443.00;;;;4956795;28;111410;-73
2022/02/09 07:14:10;;;;;;;3.37;1.63;;;8.70;99.90;8.60;101441.00;;;;4958895;28;87966;-71
2022/02/09 07:16:37;;;;;;;1.93;1.50;;;8.70;99.90;8.60;101442.00;;;;4954944;28;117511;-71
2022/02/09 07:19:07;;;;;;;4.80;1.70;;;8.70;99.90;8.60;101431.00;;;;4957520;28;88754;-73
2022/02/09 07:21:35;;;;;;;1.50;1.17;;;8.70;99.90;8.70;101426.00;;;;4976832;28;87690;-74
2022/02/09 07:24:03;;;;;;;2.20;1.60;;;8.70;99.90;8.70;101436.00;;;;4969000;28;87933;-73
2022/02/09 07:26:41;;;;;;;1.47;1.37;;;9.10;99.90;8.70;101436.00;;;;4956471;28;88944;-72
2022/02/09 07:29:08;;;;;;;2.60;1.10;;;8.70;99.90;8.70;101425.00;;;;4969861;28;87953;-73
2022/02/09 07:31:33;;;;;;;1.90;1.37;;;8.70;99.90;8.70;101429.00;;;;4971189;28;87886;-73
2022/02/09 07:33:59;;;;;;;2.67;1.53;;;8.80;99.90;8.70;101444.00;;;;4968754;28;109778;-70
2022/02/09 07:36:31;;;;;;;2.67;1.20;;;8.80;99.90;8.70;101441.00;;;;4976289;28;88534;-73
2022/02/09 07:38:58;;;;;;;1.90;1.40;;;8.80;99.90;8.70;101443.00;;;;4989800;28;87894;-71
2022/02/09 07:41:24;;;;;;;1.30;1.17;;;8.80;99.90;8.70;101449.00;;;;4973819;28;87791;-73
2022/02/09 07:49:23;;;;;;;1.00;0.90;;;8.80;99.90;8.70;101447.00;;;;4963224;28;87877;-71
2022/02/09 07:54:20;;;;;;;3.33;1.43;;;8.80;99.90;8.70;101438.00;;;;4963387;28;87503;-71
2022/02/09 07:56:46;;;;;;;1.83;1.20;;;8.80;99.90;8.70;101432.00;;;;4975831;28;89222;-73
2022/02/09 07:59:15;;;;;;;0.83;0.83;;;8.80;99.90;8.70;101442.00;;;;4975010;28;116054;-72
2022/02/09 08:01:42;;;;;;;2.23;1.40;;;8.80;99.90;8.70;101435.00;;;;4974420;28;88434;-74
2022/02/09 08:04:08;;;;;;;1.20;0.90;;;8.80;99.90;8.70;101436.00;;;;4973726;28;87953;-71
2022/02/09 08:06:35;;;;;;;1.03;0.70;;;8.80;99.90;8.80;101439.00;;;;4991050;28;88248;-71
2022/02/09 08:09:08;;;;;;;3.27;1.10;;;8.80;99.90;8.80;101431.00;;;;4989827;28;101525;-72
2022/02/09 08:11:48;;;;;;;1.57;0.90;;;9.10;99.90;8.80;101422.00;;;;4976200;28;87962;-71
2022/02/09 08:28:17;;;;;;;2.90;1.17;;;8.90;99.90;8.90;101437.00;;;;4967402;28;87292;-71
2022/02/09 08:33:18;;;;;;;1.13;1.00;;;9.00;99.90;8.90;101437.00;;;;4952628;28;99618;-71
2022/02/09 08:35:46;;;;;;;1.17;0.83;;;8.90;99.90;8.90;101444.00;;;;4973070;28;89554;-74
2022/02/09 08:38:13;;;;;;;0.83;0.70;;;8.90;99.90;8.90;101432.00;;;;4975563;28;89332;-73
2022/02/09 08:40:42;;;;;;;1.63;0.63;;;9.00;99.90;9.00;101429.00;;;;4974993;28;88673;-71
2022/02/09 08:43:11;;;;;;;1.63;0.93;;;9.00;99.90;8.90;101425.00;;;;4976169;28;91312;-71
2022/02/09 08:45:39;;;;;;;0.77;0.67;;;9.00;99.90;9.00;101433.00;;;;4961044;28;87930;-73
2022/02/09 08:48:05;;;;;;;0.97;0.90;;;9.10;99.90;9.00;101423.00;;;;4954836;28;104275;-73
2022/02/09 08:50:31;;;;;;;1.00;0.90;;;10.00;99.90;9.00;101434.00;;;;4957098;28;88007;-70
2022/02/09 08:52:57;;;;;;;0.80;0.80;;;9.10;99.90;9.00;101430.00;;;;4970959;28;87080;-70
2022/02/09 08:55:23;;;;;;;1.07;0.60;;;9.10;99.90;9.10;101428.00;;;;4955036;28;106834;-70
2022/02/09 08:57:49;;;;;;;1.07;0.80;;;9.10;99.90;9.10;101431.00;;;;4955231;28;88484;-72
2022/02/09 09:00:27;;;;;;;0.97;0.70;;;9.20;99.90;9.10;101429.00;;;;4965487;28;89027;-72
2022/02/09 09:08:22;;;;;;;1.27;0.83;;;9.20;99.90;9.10;101420.00;;;;4972851;28;88205;-71
2022/02/09 09:42:05;;;;;;;1.63;1.20;;;9.30;99.90;9.20;101402.00;;;;4971986;28;87790;-72
2022/02/09 10:01:16;;;;;;;1.00;0.80;;;9.40;99.90;9.30;101403.00;;;;4974333;28;87854;-69
2022/02/09 10:04:01;;;;;;;1.17;1.07;;;9.40;99.90;9.30;101400.00;;;;4978151;28;88039;-70
2022/02/09 10:35:25;;;;;;;1.87;1.03;;;9.50;99.90;9.50;101394.00;;;;4974366;28;87657;-71
2022/02/09 10:37:51;;;;;;;1.97;1.10;;;9.60;99.90;9.50;101378.00;;;;4975301;28;89386;-70
2022/02/09 10:40:35;;;;;;;0.80;0.70;;;9.60;99.90;9.50;101388.00;;;;4964035;28;87985;-69
2022/02/09 10:43:02;;;;;;;1.30;0.80;;;9.60;99.90;9.50;101400.00;;;;4971461;28;87195;-69
2022/02/09 10:45:37;;;;;;;1.70;1.00;;;9.60;99.90;9.60;101384.00;;;;4975381;28;88009;-69
2022/02/09 10:48:08;;;;;;;1.30;1.07;;;9.60;99.90;9.60;101392.00;;;;4991586;28;87959;-69
2022/02/09 10:50:36;;;;;;;2.20;1.23;;;9.60;99.90;9.60;101386.00;;;;4991133;28;88981;-71
2022/02/09 10:53:11;;;;;;;1.47;0.70;;;9.60;99.90;9.60;101375.00;;;;4977892;28;87883;-68
2022/02/09 10:55:43;;;;;;;0.97;0.97;;;9.60;99.90;9.60;101378.00;;;;4957689;28;87944;-70
2022/02/09 10:58:17;;;;;;;1.13;0.73;;;9.70;99.90;9.60;101375.00;;;;4956487;28;89475;-68
2022/02/09 11:00:46;;;;;;;1.07;0.90;;;9.70;99.90;9.60;101365.00;;;;4991102;28;87804;-71
2022/02/09 11:03:23;;;;;;;1.53;1.23;;;9.70;99.90;9.60;101374.00;;;;4977231;28;88044;-70
2022/02/09 11:05:51;;;;;;;0.83;0.80;;;9.70;99.90;9.70;101365.00;;;;4972179;28;87889;-71
2022/02/09 11:08:18;;;;;;;1.30;1.00;;;9.70;99.90;9.60;101358.00;;;;4965832;28;103393;-71
2022/02/09 11:10:45;;;;;;;0.67;0.67;;;9.70;99.90;9.60;101362.00;;;;4977320;28;87634;-69
2022/02/09 11:13:12;;;;;;;0.73;0.63;;;9.70;99.90;9.70;101366.00;;;;4976634;28;87986;-71
2022/02/09 11:15:40;;;;;;;1.33;0.90;;;9.70;99.90;9.70;101350.00;;;;4959907;28;88794;-69
2022/02/09 11:18:10;;;;;;;2.73;1.27;;;9.70;99.90;9.60;101362.00;;;;4971045;28;88633;-69
2022/02/09 11:21:03;;;;;;;2.33;1.50;;;9.80;99.90;9.60;101365.00;;;;4971399;28;88759;-71
2022/02/09 11:23:57;;;;;;;1.43;0.93;;;9.70;99.90;9.60;101358.00;;;;4957332;28;87923;-69
2022/02/09 11:32:32;;;;;;;2.33;1.27;;;9.70;99.90;9.70;101372.00;;;;4973410;28;87918;-69
2022/02/09 11:35:04;;;;;;;2.13;1.10;;;9.70;99.90;9.70;101368.00;;;;4963685;28;87124;-69
2022/02/09 11:37:42;;;;;;;1.30;1.03;;;9.70;99.90;9.70;101363.00;;;;4973543;28;88036;-69
2022/02/09 11:43:40;;;;;;;2.37;0.97;;;9.70;99.90;9.70;101361.00;;;;4973154;28;88557;-69
2022/02/09 11:51:51;;;;;;;1.03;0.93;;;9.70;99.90;9.70;101369.00;;;;4976842;28;88060;-69
2022/02/09 11:57:20;;;;;;;1.30;1.10;;;9.70;99.90;9.70;101352.00;;;;4972974;28;87941;-69
2022/02/09 12:00:27;;;;;;;1.90;1.00;;;9.70;99.90;9.70;101350.00;;;;4976447;28;87715;-71
2022/02/09 12:11:33;;;;;;;2.53;1.40;;;9.80;99.90;9.80;101358.00;;;;4959545;28;88875;-72
2022/02/09 12:14:14;;;;;;;1.97;1.43;;;9.90;99.90;9.90;101348.00;;;;4975783;28;89469;-71
2022/02/09 12:19:33;;;;;;;1.20;1.10;;;9.90;99.90;9.90;101346.00;;;;4956372;28;87899;-71
2022/02/09 12:24:34;;;;;;;1.93;1.13;;;10.00;99.90;9.90;101337.00;;;;4964564;28;102908;-70
2022/02/09 12:27:07;;;;;;;4.53;1.10;;;10.00;99.90;10.00;101342.00;;;;4956121;28;87775;-69
2022/02/09 12:29:38;;;;;;;1.60;0.93;;;10.00;99.90;10.00;101335.00;;;;4965615;28;87544;-69
2022/02/09 12:32:16;;;;;;;1.23;0.97;;;10.00;99.90;10.00;101327.00;;;;4969799;28;88083;-69
2022/02/09 12:35:13;;;;;;;1.00;0.70;;;10.10;99.90;10.00;101330.00;;;;4969059;28;106070;-71
2022/02/09 12:37:45;;;;;;;1.77;1.20;;;10.00;99.90;10.00;101331.00;;;;4967557;28;88770;-68
2022/02/09 12:40:16;;;;;;;1.43;1.13;;;10.10;99.90;10.00;101327.00;;;;4975774;28;87992;-68
2022/02/09 12:43:02;;;;;;;2.10;1.23;;;10.00;99.90;10.00;101328.00;;;;4975491;28;87781;-72
2022/02/09 12:45:28;;;;;;;2.03;1.10;;;10.10;99.90;10.00;101316.00;;;;4964014;28;87903;-69
2022/02/09 12:47:59;;;;;;;0.97;0.77;;;10.10;99.90;10.00;101322.00;;;;4956830;28;88037;-69
2022/02/09 12:50:34;;;;;;;1.47;1.00;;;10.10;99.90;10.00;101316.00;;;;4966830;28;87855;-69
2022/02/09 12:53:04;;;;;;;1.13;1.00;;;10.10;99.90;10.00;101310.00;;;;4956229;28;87795;-71
2022/02/09 12:55:39;;;;;;;0.90;0.80;;;10.10;99.90;10.00;101308.00;;;;4970317;28;87467;-70
2022/02/09 12:58:12;;;;;;;3.17;1.00;;;10.30;99.90;10.00;101306.00;;;;4954947;28;87885;-70
2022/02/09 13:00:46;;;;;;;1.47;1.03;;;10.10;99.90;10.00;101307.00;;;;4970165;28;87922;-69
2022/02/09 13:03:20;;;;;;;1.90;1.30;;;10.10;99.90;10.00;101308.00;;;;4955603;28;88629;-70
2022/02/09 13:05:52;;;;;;;1.87;0.90;;;10.10;99.90;10.00;101298.00;;;;4970352;28;88102;-70
2022/02/09 13:08:25;;;;;;;1.43;1.20;;;10.00;99.90;10.00;101307.00;;;;4955950;28;104132;-70
2022/02/09 13:11:15;;;;;;;1.83;1.27;;;10.00;99.90;10.00;101296.00;;;;4955233;28;90516;-71
2022/02/09 13:13:44;;;;;;;0.90;0.87;;;10.00;99.90;10.00;101309.00;;;;4969363;28;87808;-70
2022/02/09 13:16:17;;;;;;;2.03;1.43;;;10.00;99.90;10.00;101306.00;;;;4968575;28;89121;-71
2022/02/09 13:19:05;;;;;;;1.93;1.10;;;10.00;99.90;10.00;101297.00;;;;4958863;28;87976;-69
2022/02/09 14:11:47;;;;;;;1.43;1.20;;;9.80;99.90;9.80;101296.00;;;;4977417;28;87758;-69
2022/02/09 14:23:31;;;;;;;3.77;2.17;;;9.80;99.90;9.70;101290.00;;;;4954539;28;99954;-69
2022/02/09 14:34:14;;;;;;;2.60;1.03;;;9.40;99.90;9.70;101291.00;;;;4973674;28;88368;-69
2022/02/09 14:52:36;;;;;;;3.23;1.57;;;9.80;99.90;9.70;101314.00;;;;4952880;28;88825;-71
2022/02/09 14:57:48;;;;;;;3.23;1.60;;;9.80;99.90;9.70;101300.00;;;;4952861;28;87966;-69
2022/02/09 15:00:20;;;;;;;1.43;1.00;;;9.80;99.90;9.70;101309.00;;;;4955033;28;87667;-69
2022/02/09 15:05:40;;;;;;;1.60;1.10;;;9.80;99.90;9.70;101288.00;;;;4952847;28;106217;-70
2022/02/09 15:10:39;;;;;;;1.07;0.97;;;9.70;99.90;9.70;101302.00;;;;4957248;28;86992;-69
2022/02/09 15:13:23;;;;;;;1.27;1.17;;;9.70;99.90;9.70;101294.00;;;;4960882;28;87789;-68
2022/02/09 15:23:44;;;;;;;2.23;1.43;;;9.70;99.90;9.60;101290.00;;;;4966708;28;88397;-71
2022/02/09 15:26:10;;;;;;;3.63;1.80;;;9.70;99.90;9.60;101287.00;;;;4954363;28;88993;-69
2022/02/09 15:28:37;;;;;;;2.07;1.43;;;9.70;99.90;9.60;101295.00;;;;4955472;28;88786;-71
2022/02/09 15:33:36;;;;;;;2.27;1.43;;;9.70;99.90;9.60;101293.00;;;;4968128;28;87663;-69
2022/02/09 15:36:03;;;;;;;1.63;1.53;;;9.60;99.90;9.60;101289.00;;;;4955412;28;87030;-69
2022/02/09 15:38:39;;;;;;;2.17;1.43;;;9.70;99.90;9.60;101296.00;;;;4957936;28;87626;-71
2022/02/09 15:41:16;;;;;;;2.03;1.63;;;9.60;99.90;9.60;101288.00;;;;4962869;28;87829;-69
2022/02/09 16:05:44;;;;;;;2.03;1.50;;;9.50;99.90;9.50;101300.00;;;;4970672;28;87728;-69
2022/02/09 16:08:31;;;;;;;2.80;1.70;;;9.60;99.90;9.50;101308.00;;;;4986181;28;89518;-70
2022/02/09 16:24:43;;;;;;;3.20;1.50;;;9.50;99.90;9.40;101302.00;;;;4964278;28;87674;-69
2022/02/09 16:36:17;;;;;;;1.83;1.40;;;9.50;99.90;9.40;101304.00;;;;4951879;28;87701;-70
2022/02/09 16:46:29;;;;;;;2.13;1.57;;;9.40;99.90;9.40;101316.00;;;;4971040;28;87867;-68
2022/02/09 16:49:07;;;;;;;4.00;1.63;;;9.40;99.90;9.40;101311.00;;;;4973627;28;87886;-69
2022/02/09 16:51:49;;;;;;;4.03;1.90;;;9.50;99.90;9.40;101321.00;;;;4973720;28;87895;-69
2022/02/09 17:18:46;;;;;;;1.70;1.20;;;9.50;99.90;9.40;101315.00;;;;4969744;28;87568;-70
2022/02/09 17:21:11;;;;;;;1.80;1.40;;;9.40;99.90;9.40;101314.00;;;;4974607;28;87788;-70
2022/02/09 17:23:37;;;;;;;1.63;1.33;;;9.50;99.90;9.40;101311.00;;;;4974933;28;87047;-70
2022/02/09 17:26:04;;;;;;;3.27;1.37;;;9.50;99.90;9.40;101306.00;;;;4951491;28;100885;-70
2022/02/09 17:28:29;;;;;;;2.07;1.70;;;9.40;99.90;9.30;101323.00;;;;4971275;28;87744;-68
2022/02/09 17:33:39;;;;;;;2.93;1.77;;;9.40;99.90;9.30;101310.00;;;;4989538;28;88075;-70
2022/02/09 17:36:43;;;;;;;1.90;1.60;;;9.40;99.90;9.30;101316.00;;;;4977134;28;87947;-69
2022/02/09 17:39:05;;;;;;;2.77;2.00;;;9.40;99.90;9.30;101315.00;;;;4969275;28;87731;-68
2022/02/09 17:58:05;;;;;;;3.10;1.80;;;9.40;99.90;9.30;101311.00;;;;4974258;28;88707;-70
2022/02/09 18:00:31;;;;;;;2.20;1.87;;;9.30;99.90;9.30;101303.00;;;;4974323;28;87733;-68
2022/02/09 18:02:56;;;;;;;1.93;1.43;;;9.30;99.90;9.30;101309.00;;;;4975231;28;108314;-69
2022/02/09 18:05:37;;;;;;;1.53;1.43;;;9.30;99.90;9.30;101315.00;;;;4974902;28;117571;-70
2022/02/09 18:08:09;;;;;;;2.33;1.70;;;9.40;99.90;9.30;101310.00;;;;4965008;28;87879;-68
2022/02/09 18:31:14;;;;;;;3.30;1.80;;;9.30;99.90;9.30;101307.00;;;;4952914;28;87718;-71
2022/02/09 18:33:53;;;;;;;2.50;1.70;;;9.30;99.90;9.30;101314.00;;;;4960398;28;87654;-69
2022/02/09 18:44:21;;;;;;;2.77;1.60;;;9.30;99.90;9.30;101301.00;;;;4961095;28;87904;-70
2022/02/09 19:01:01;;;;;;;3.47;1.80;;;9.30;99.90;9.20;101298.00;;;;4952738;28;87708;-70
2022/02/09 19:03:25;;;;;;;2.03;1.47;;;9.30;99.90;9.20;101297.00;;;;4955043;28;87737;-70
2022/02/09 19:05:52;;;;;;;2.67;1.83;;;9.30;99.90;9.20;101303.00;;;;4955447;28;87686;-71
2022/02/09 19:08:34;;;;;;;1.50;1.40;;;9.30;99.90;9.20;101299.00;;;;4955897;28;87066;-69
2022/02/09 19:16:51;;;;;;;3.20;1.73;;;9.20;99.90;9.20;101302.00;;;;4964089;28;88788;-71
2022/02/09 19:49:00;;;;;;;2.87;1.87;;;9.20;99.90;9.10;101296.00;;;;4973163;28;87768;-70
2022/02/09 19:56:39;;;;;;;2.50;2.00;;;9.20;99.90;9.10;101291.00;;;;4966320;28;88055;-68
2022/02/09 19:59:20;;;;;;;5.57;2.27;;;9.20;99.90;9.10;101304.00;;;;4954925;28;88058;-68
2022/02/09 20:01:47;;;;;;;2.27;1.80;;;9.20;99.90;9.10;101298.00;;;;4955204;28;88494;-69
2022/02/09 20:04:15;;;;;;;1.80;1.40;;;9.20;99.90;9.10;101311.00;;;;4954301;28;88164;-68
2022/02/09 20:06:45;;;;;;;2.47;1.50;;;9.20;99.90;9.10;101312.00;;;;4954766;28;87836;-68
2022/02/09 20:09:11;;;;;;;1.47;1.23;;;9.20;99.90;9.10;101304.00;;;;4964862;28;88925;-70
2022/02/09 20:11:41;;;;;;;1.80;1.13;;;9.20;99.90;9.10;101307.00;;;;4974751;28;88125;-69
2022/02/09 20:14:08;;;;;;;2.17;1.40;;;9.10;99.90;9.10;101297.00;;;;4973688;28;88438;-70
2022/02/09 20:16:34;;;;;;;1.63;1.53;;;9.20;99.90;9.10;101307.00;;;;4974392;28;87761;-70
2022/02/09 20:18:59;;;;;;;2.57;1.73;;;9.20;99.90;9.10;101306.00;;;;4973827;28;87735;-68
2022/02/09 20:21:27;;;;;;;2.80;1.67;;;9.20;99.90;9.10;101304.00;;;;4973992;28;113702;-70
2022/02/09 20:23:54;;;;;;;7.77;4.13;;;9.20;99.90;9.10;101297.00;;;;4986661;28;88095;-68
2022/02/09 20:26:22;;;;;;;10.07;6.43;;;9.20;99.90;9.10;101304.00;;;;4980237;27;88520;-70
2022/02/09 20:28:59;;;;;;;14.00;7.23;;;9.20;99.90;9.10;101295.00;;;;4955647;28;88017;-70
2022/02/09 20:31:30;;;;;;;10.47;6.33;;;9.20;99.90;9.10;101306.00;;;;4970654;28;87988;-69
2022/02/09 20:34:01;;;;;;;8.13;3.27;;;9.20;99.90;9.10;101304.00;;;;4976634;28;88835;-71
2022/02/09 20:36:29;;;;;;;2.73;1.77;;;9.20;99.90;9.10;101296.00;;;;4955536;28;87852;-70
2022/02/09 20:38:58;;;;;;;3.37;2.23;;;9.20;99.90;9.10;101300.00;;;;4955745;28;87678;-68
2022/02/09 20:41:23;;;;;;;3.30;1.73;;;9.20;99.90;9.10;101306.00;;;;4956042;28;88131;-71
2022/02/09 20:44:01;;;;;;;2.10;1.33;;;9.20;99.90;9.10;101306.00;;;;4957082;28;87774;-70
2022/02/09 20:46:30;;;;;;;1.47;1.20;;;9.20;99.90;9.10;101300.00;;;;4956285;28;87898;-69
2022/02/09 20:48:55;;;;;;;2.30;1.60;;;9.20;99.90;9.10;101297.00;;;;4955618;28;87796;-69
2022/02/09 20:51:22;;;;;;;1.90;1.47;;;9.20;99.90;9.10;101297.00;;;;4969969;28;116597;-69
2022/02/09 20:53:47;;;;;;;2.23;1.53;;;9.20;99.90;9.10;101298.00;;;;4956357;28;87896;-68
2022/02/09 20:56:13;;;;;;;1.60;1.50;;;9.10;99.90;9.10;101303.00;;;;4972618;28;105956;-69
2022/02/09 20:58:42;;;;;;;9.00;1.57;;;9.20;99.90;9.10;101293.00;;;;4974656;28;88446;-68
2022/02/09 21:01:13;;;;;;;2.60;1.40;;;9.20;99.90;9.10;101295.00;;;;4974135;28;89323;-68
2022/02/09 21:03:53;;;;;;;1.70;1.37;;;9.10;99.90;9.10;101295.00;;;;4975170;28;88789;-69
2022/02/09 21:06:35;;;;;;;4.30;1.50;;;9.20;99.90;9.10;101288.00;;;;4977243;28;87645;-70
2022/02/09 21:09:17;;;;;;;2.37;1.60;;;9.10;99.90;9.10;101303.00;;;;4967662;28;87698;-69
2022/02/09 21:12:06;;;;;;;2.50;1.80;;;9.20;99.90;9.00;101296.00;;;;4973150;28;87827;-71
2022/02/09 21:15:06;;;;;;;1.20;1.10;;;9.10;99.90;9.10;101290.00;;;;4959309;28;87912;-69
2022/02/09 21:26:26;;;;;;;1.77;1.20;;;9.10;99.90;9.00;101289.00;;;;4957262;28;88617;-68
2022/02/09 21:52:48;;;;;;;1.70;1.20;;;9.00;99.90;9.00;101277.00;;;;4975207;28;88654;-69
2022/02/09 22:16:43;;;;;;;1.40;1.20;;;9.00;99.90;8.90;101269.00;;;;4955964;28;87758;-67
2022/02/09 22:27:04;;;;;;;4.37;1.73;;;9.00;99.90;8.90;101252.00;;;;4973126;28;87927;-68
2022/02/09 22:30:03;;;;;;;2.07;1.50;;;9.00;99.90;8.90;101252.00;;;;4977531;28;87902;-69
2022/02/09 22:46:02;;;;;;;3.13;1.87;;;9.00;99.90;8.90;101246.00;;;;4977085;28;88790;-69
2022/02/09 22:48:59;;;;;;;2.13;1.60;;;8.90;99.90;8.90;101248.00;;;;4976997;28;87787;-68
2022/02/09 22:56:37;;;;;;;1.70;1.27;;;8.90;99.90;8.90;101237.00;;;;4974315;28;87711;-68
2022/02/09 22:59:08;;;;;;;2.00;1.17;;;8.90;99.90;8.90;101237.00;;;;4976744;28;88116;-70
2022/02/09 23:01:48;;;;;;;1.47;1.20;;;8.90;99.90;8.90;101229.00;;;;4976796;28;87979;-70
2022/02/09 23:04:34;;;;;;;1.57;1.20;;;8.90;99.90;8.90;101240.00;;;;4959779;28;86955;-69
2022/02/09 23:07:10;;;;;;;1.23;0.80;;;8.90;99.90;8.80;101235.00;;;;4957485;28;87651;-71
2022/02/09 23:12:24;;;;;;;1.93;1.50;;;8.90;99.90;8.80;101232.00;;;;4953835;28;88775;-69
2022/02/09 23:23:08;;;;;;;2.37;1.47;;;8.80;99.90;8.80;101231.00;;;;4918816;28;87972;-70
